sensor_id;sensor_type;location;lat;lon;timestamp;P1;durP1;ratioP1;P2;durP2;ratioP2
74660;SDS011;63191;39.566;2.654;2023-04-03T00:01:01;3.70;;;0.30;;
74660;SDS011;63191;39.566;2.654;2023-04-03T00:03:27;6.60;;;0.40;;
74660;SDS011;63191;39.566;2.654;2023-04-03T00:05:53;5.40;;;0.30;;
74660;SDS011;63191;39.566;2.654;2023-04-03T00:08:19;7.10;;;0.40;;
74660;SDS011;63191;39.566;2.654;2023-04-03T00:10:45;3.80;;;0.40;;
74660;SDS011;63191;39.566;2.654;2023-04-03T00:13:11;4.90;;;0.30;;
74660;SDS011;63191;39.566;2.654;2023-04-03T00:15:38;4.80;;;0.50;;
74660;SDS011;63191;39.566;2.654;2023-04-03T00:18:05;4.70;;;0.40;;
74660;SDS011;63191;39.566;2.654;2023-04-03T00:20:32;5.80;;;0.40;;
74660;SDS011;63191;39.566;2.654;2023-04-03T00:22:58;4.60;;;0.60;;
74660;SDS011;63191;39.566;2.654;2023-04-03T00:25:24;5.80;;;0.40;;
74660;SDS011;63191;39.566;2.654;2023-04-03T00:27:50;5.10;;;0.40;;
74660;SDS011;63191;39.566;2.654;2023-04-03T00:30:18;9.00;;;0.40;;
74660;SDS011;63191;39.566;2.654;2023-04-03T00:32:45;5.40;;;0.40;;
74660;SDS011;63191;39.566;2.654;2023-04-03T00:35:12;6.50;;;0.50;;
74660;SDS011;63191;39.566;2.654;2023-04-03T00:37:42;5.10;;;0.80;;
74660;SDS011;63191;39.566;2.654;2023-04-03T00:40:09;6.10;;;0.50;;
74660;SDS011;63191;39.566;2.654;2023-04-03T00:42:37;6.40;;;0.60;;
74660;SDS011;63191;39.566;2.654;2023-04-03T00:47:29;4.00;;;0.80;;
74660;SDS011;63191;39.566;2.654;2023-04-03T00:49:56;6.00;;;0.90;;
74660;SDS011;63191;39.566;2.654;2023-04-03T00:52:28;7.20;;;0.90;;
74660;SDS011;63191;39.566;2.654;2023-04-03T00:55:00;4.00;;;0.60;;
74660;SDS011;63191;39.566;2.654;2023-04-03T00:57:29;5.90;;;0.90;;
74660;SDS011;63191;39.566;2.654;2023-04-03T01:00:04;4.10;;;0.50;;
74660;SDS011;63191;39.566;2.654;2023-04-03T01:02:32;5.90;;;0.60;;
74660;SDS011;63191;39.566;2.654;2023-04-03T01:04:58;6.30;;;0.60;;
74660;SDS011;63191;39.566;2.654;2023-04-03T01:07:28;5.00;;;0.70;;
74660;SDS011;63191;39.566;2.654;2023-04-03T01:10:00;4.50;;;0.50;;
74660;SDS011;63191;39.566;2.654;2023-04-03T01:12:38;6.60;;;0.50;;
74660;SDS011;63191;39.566;2.654;2023-04-03T01:15:11;6.10;;;0.90;;
74660;SDS011;63191;39.566;2.654;2023-04-03T01:17:44;4.90;;;0.60;;
74660;SDS011;63191;39.566;2.654;2023-04-03T01:25:37;7.00;;;0.50;;
74660;SDS011;63191;39.566;2.654;2023-04-03T01:28:22;3.30;;;0.40;;
74660;SDS011;63191;39.566;2.654;2023-04-03T01:31:02;7.20;;;0.60;;
74660;SDS011;63191;39.566;2.654;2023-04-03T01:33:46;4.90;;;0.60;;
74660;SDS011;63191;39.566;2.654;2023-04-03T01:36:18;7.70;;;1.30;;
74660;SDS011;63191;39.566;2.654;2023-04-03T01:38:47;4.10;;;0.90;;
74660;SDS011;63191;39.566;2.654;2023-04-03T01:41:15;5.80;;;0.70;;
74660;SDS011;63191;39.566;2.654;2023-04-03T01:43:41;9.70;;;1.60;;
74660;SDS011;63191;39.566;2.654;2023-04-03T01:46:07;7.50;;;0.80;;
74660;SDS011;63191;39.566;2.654;2023-04-03T01:48:33;4.50;;;0.70;;
74660;SDS011;63191;39.566;2.654;2023-04-03T01:51:00;4.00;;;0.50;;
74660;SDS011;63191;39.566;2.654;2023-04-03T01:53:33;5.20;;;0.50;;
74660;SDS011;63191;39.566;2.654;2023-04-03T01:55:59;3.70;;;0.50;;
74660;SDS011;63191;39.566;2.654;2023-04-03T01:58:25;5.50;;;0.70;;
74660;SDS011;63191;39.566;2.654;2023-04-03T02:00:51;3.50;;;0.60;;
74660;SDS011;63191;39.566;2.654;2023-04-03T02:03:18;5.80;;;1.00;;
74660;SDS011;63191;39.566;2.654;2023-04-03T02:05:44;6.00;;;0.50;;
74660;SDS011;63191;39.566;2.654;2023-04-03T02:08:10;2.70;;;0.40;;
74660;SDS011;63191;39.566;2.654;2023-04-03T02:10:36;6.40;;;0.60;;
74660;SDS011;63191;39.566;2.654;2023-04-03T02:13:02;5.50;;;0.50;;
74660;SDS011;63191;39.566;2.654;2023-04-03T02:15:28;5.20;;;0.50;;
74660;SDS011;63191;39.566;2.654;2023-04-03T02:17:54;5.40;;;0.50;;
74660;SDS011;63191;39.566;2.654;2023-04-03T02:20:20;5.40;;;0.50;;
74660;SDS011;63191;39.566;2.654;2023-04-03T02:22:46;5.40;;;0.80;;
74660;SDS011;63191;39.566;2.654;2023-04-03T02:25:12;2.80;;;0.40;;
74660;SDS011;63191;39.566;2.654;2023-04-03T02:27:38;6.50;;;0.80;;
74660;SDS011;63191;39.566;2.654;2023-04-03T02:30:06;5.50;;;0.40;;
74660;SDS011;63191;39.566;2.654;2023-04-03T02:32:34;6.60;;;0.60;;
74660;SDS011;63191;39.566;2.654;2023-04-03T02:35:00;4.20;;;0.40;;
74660;SDS011;63191;39.566;2.654;2023-04-03T02:37:26;5.40;;;0.40;;
74660;SDS011;63191;39.566;2.654;2023-04-03T02:39:51;4.90;;;0.40;;
74660;SDS011;63191;39.566;2.654;2023-04-03T02:42:17;6.80;;;0.40;;
74660;SDS011;63191;39.566;2.654;2023-04-03T02:44:44;6.10;;;0.50;;
74660;SDS011;63191;39.566;2.654;2023-04-03T02:47:10;7.50;;;0.70;;
74660;SDS011;63191;39.566;2.654;2023-04-03T02:49:37;5.00;;;0.60;;
74660;SDS011;63191;39.566;2.654;2023-04-03T02:52:03;5.70;;;0.40;;
74660;SDS011;63191;39.566;2.654;2023-04-03T02:54:29;6.30;;;0.50;;
74660;SDS011;63191;39.566;2.654;2023-04-03T02:56:57;5.10;;;0.50;;
74660;SDS011;63191;39.566;2.654;2023-04-03T02:59:23;5.40;;;0.50;;
74660;SDS011;63191;39.566;2.654;2023-04-03T03:01:48;5.80;;;0.60;;
74660;SDS011;63191;39.566;2.654;2023-04-03T03:04:14;3.10;;;0.50;;
74660;SDS011;63191;39.566;2.654;2023-04-03T03:06:40;4.20;;;0.70;;
74660;SDS011;63191;39.566;2.654;2023-04-03T03:09:06;7.10;;;0.30;;
74660;SDS011;63191;39.566;2.654;2023-04-03T03:11:32;4.90;;;0.50;;
74660;SDS011;63191;39.566;2.654;2023-04-03T03:13:58;7.40;;;0.90;;
74660;SDS011;63191;39.566;2.654;2023-04-03T03:16:23;6.80;;;0.80;;
74660;SDS011;63191;39.566;2.654;2023-04-03T03:18:49;7.70;;;1.10;;
74660;SDS011;63191;39.566;2.654;2023-04-03T03:21:15;6.90;;;0.70;;
74660;SDS011;63191;39.566;2.654;2023-04-03T03:23:40;4.40;;;0.30;;
74660;SDS011;63191;39.566;2.654;2023-04-03T03:26:08;6.40;;;0.50;;
74660;SDS011;63191;39.566;2.654;2023-04-03T03:28:36;3.80;;;0.60;;
74660;SDS011;63191;39.566;2.654;2023-04-03T03:31:03;12.40;;;1.50;;
74660;SDS011;63191;39.566;2.654;2023-04-03T03:33:29;9.50;;;1.00;;
74660;SDS011;63191;39.566;2.654;2023-04-03T03:35:55;4.90;;;0.90;;
74660;SDS011;63191;39.566;2.654;2023-04-03T03:38:22;6.10;;;0.60;;
74660;SDS011;63191;39.566;2.654;2023-04-03T03:40:49;10.10;;;0.80;;
74660;SDS011;63191;39.566;2.654;2023-04-03T03:43:16;5.70;;;1.00;;
74660;SDS011;63191;39.566;2.654;2023-04-03T03:45:42;5.40;;;0.40;;
74660;SDS011;63191;39.566;2.654;2023-04-03T03:48:08;6.20;;;0.90;;
74660;SDS011;63191;39.566;2.654;2023-04-03T03:50:34;6.50;;;1.10;;
74660;SDS011;63191;39.566;2.654;2023-04-03T03:53:01;4.30;;;0.50;;
74660;SDS011;63191;39.566;2.654;2023-04-03T03:55:27;5.30;;;0.60;;
74660;SDS011;63191;39.566;2.654;2023-04-03T03:57:53;5.00;;;0.60;;
74660;SDS011;63191;39.566;2.654;2023-04-03T04:00:19;4.30;;;0.40;;
74660;SDS011;63191;39.566;2.654;2023-04-03T04:02:45;5.20;;;0.60;;
74660;SDS011;63191;39.566;2.654;2023-04-03T04:05:11;5.80;;;0.70;;
74660;SDS011;63191;39.566;2.654;2023-04-03T04:07:37;8.10;;;0.80;;
74660;SDS011;63191;39.566;2.654;2023-04-03T04:10:03;6.10;;;0.80;;
74660;SDS011;63191;39.566;2.654;2023-04-03T04:12:29;4.50;;;0.40;;
74660;SDS011;63191;39.566;2.654;2023-04-03T04:14:54;6.10;;;0.90;;
74660;SDS011;63191;39.566;2.654;2023-04-03T04:17:21;7.80;;;1.40;;
74660;SDS011;63191;39.566;2.654;2023-04-03T04:19:47;7.00;;;0.80;;
74660;SDS011;63191;39.566;2.654;2023-04-03T04:22:12;3.00;;;0.60;;
74660;SDS011;63191;39.566;2.654;2023-04-03T04:24:38;7.30;;;1.00;;
74660;SDS011;63191;39.566;2.654;2023-04-03T04:27:04;5.00;;;0.80;;
74660;SDS011;63191;39.566;2.654;2023-04-03T04:29:29;7.80;;;0.70;;
74660;SDS011;63191;39.566;2.654;2023-04-03T04:32:00;9.10;;;1.10;;
74660;SDS011;63191;39.566;2.654;2023-04-03T04:34:26;11.40;;;0.90;;
74660;SDS011;63191;39.566;2.654;2023-04-03T04:36:52;7.30;;;0.70;;
74660;SDS011;63191;39.566;2.654;2023-04-03T04:39:18;6.10;;;0.80;;
74660;SDS011;63191;39.566;2.654;2023-04-03T04:41:43;4.80;;;0.60;;
74660;SDS011;63191;39.566;2.654;2023-04-03T04:44:09;6.90;;;0.60;;
74660;SDS011;63191;39.566;2.654;2023-04-03T04:46:35;6.80;;;0.90;;
74660;SDS011;63191;39.566;2.654;2023-04-03T04:49:00;9.30;;;1.00;;
74660;SDS011;63191;39.566;2.654;2023-04-03T04:51:26;8.50;;;0.70;;
74660;SDS011;63191;39.566;2.654;2023-04-03T04:53:52;9.20;;;0.80;;
74660;SDS011;63191;39.566;2.654;2023-04-03T04:56:17;5.30;;;0.60;;
74660;SDS011;63191;39.566;2.654;2023-04-03T04:58:43;7.60;;;0.90;;
74660;SDS011;63191;39.566;2.654;2023-04-03T05:01:10;7.30;;;0.80;;
74660;SDS011;63191;39.566;2.654;2023-04-03T05:03:36;8.80;;;0.80;;
74660;SDS011;63191;39.566;2.654;2023-04-03T05:06:03;6.40;;;0.80;;
74660;SDS011;63191;39.566;2.654;2023-04-03T05:08:29;9.50;;;0.80;;
74660;SDS011;63191;39.566;2.654;2023-04-03T05:10:56;5.50;;;0.70;;
74660;SDS011;63191;39.566;2.654;2023-04-03T05:13:21;6.00;;;1.10;;
74660;SDS011;63191;39.566;2.654;2023-04-03T05:15:47;6.70;;;1.00;;
74660;SDS011;63191;39.566;2.654;2023-04-03T05:18:13;7.40;;;0.70;;
74660;SDS011;63191;39.566;2.654;2023-04-03T05:20:39;5.70;;;0.90;;
74660;SDS011;63191;39.566;2.654;2023-04-03T05:23:06;5.80;;;0.80;;
74660;SDS011;63191;39.566;2.654;2023-04-03T05:25:32;7.20;;;0.70;;
74660;SDS011;63191;39.566;2.654;2023-04-03T05:27:59;6.40;;;0.90;;
74660;SDS011;63191;39.566;2.654;2023-04-03T05:30:25;6.20;;;0.90;;
74660;SDS011;63191;39.566;2.654;2023-04-03T05:32:50;11.90;;;1.10;;
74660;SDS011;63191;39.566;2.654;2023-04-03T05:35:16;6.60;;;0.90;;
74660;SDS011;63191;39.566;2.654;2023-04-03T05:37:42;7.40;;;1.00;;
74660;SDS011;63191;39.566;2.654;2023-04-03T05:40:08;8.40;;;1.00;;
74660;SDS011;63191;39.566;2.654;2023-04-03T05:42:34;9.10;;;1.10;;
74660;SDS011;63191;39.566;2.654;2023-04-03T05:45:00;8.50;;;1.10;;
74660;SDS011;63191;39.566;2.654;2023-04-03T05:47:26;6.10;;;0.70;;
74660;SDS011;63191;39.566;2.654;2023-04-03T05:49:51;6.10;;;0.70;;
74660;SDS011;63191;39.566;2.654;2023-04-03T05:52:22;7.30;;;0.90;;
74660;SDS011;63191;39.566;2.654;2023-04-03T05:54:55;8.40;;;0.70;;
74660;SDS011;63191;39.566;2.654;2023-04-03T05:57:22;6.50;;;0.80;;
74660;SDS011;63191;39.566;2.654;2023-04-03T05:59:49;6.20;;;0.90;;
74660;SDS011;63191;39.566;2.654;2023-04-03T06:02:17;7.70;;;0.90;;
74660;SDS011;63191;39.566;2.654;2023-04-03T06:04:47;6.40;;;0.70;;
74660;SDS011;63191;39.566;2.654;2023-04-03T06:07:16;7.50;;;0.90;;
74660;SDS011;63191;39.566;2.654;2023-04-03T06:09:45;9.20;;;1.20;;
74660;SDS011;63191;39.566;2.654;2023-04-03T06:12:12;9.90;;;1.40;;
74660;SDS011;63191;39.566;2.654;2023-04-03T06:14:38;10.00;;;1.30;;
74660;SDS011;63191;39.566;2.654;2023-04-03T06:17:05;9.00;;;1.30;;
74660;SDS011;63191;39.566;2.654;2023-04-03T06:19:31;10.80;;;1.30;;
74660;SDS011;63191;39.566;2.654;2023-04-03T06:21:57;8.60;;;2.20;;
74660;SDS011;63191;39.566;2.654;2023-04-03T06:24:23;8.70;;;1.60;;
74660;SDS011;63191;39.566;2.654;2023-04-03T06:26:50;8.20;;;1.60;;
74660;SDS011;63191;39.566;2.654;2023-04-03T06:29:18;8.60;;;1.20;;
74660;SDS011;63191;39.566;2.654;2023-04-03T06:31:46;9.20;;;1.60;;
74660;SDS011;63191;39.566;2.654;2023-04-03T06:34:13;8.20;;;1.30;;
74660;SDS011;63191;39.566;2.654;2023-04-03T06:36:41;7.10;;;1.70;;
74660;SDS011;63191;39.566;2.654;2023-04-03T06:39:09;7.50;;;1.30;;
74660;SDS011;63191;39.566;2.654;2023-04-03T06:41:43;8.20;;;1.80;;
74660;SDS011;63191;39.566;2.654;2023-04-03T06:44:12;7.00;;;1.90;;
74660;SDS011;63191;39.566;2.654;2023-04-03T06:46:41;12.80;;;1.60;;
74660;SDS011;63191;39.566;2.654;2023-04-03T06:49:07;12.60;;;1.90;;
74660;SDS011;63191;39.566;2.654;2023-04-03T06:51:34;11.30;;;1.80;;
74660;SDS011;63191;39.566;2.654;2023-04-03T06:54:01;15.60;;;1.70;;
74660;SDS011;63191;39.566;2.654;2023-04-03T06:56:28;12.80;;;2.20;;
74660;SDS011;63191;39.566;2.654;2023-04-03T06:58:56;10.90;;;1.90;;
74660;SDS011;63191;39.566;2.654;2023-04-03T07:01:27;10.20;;;1.70;;
74660;SDS011;63191;39.566;2.654;2023-04-03T07:03:54;10.30;;;1.90;;
74660;SDS011;63191;39.566;2.654;2023-04-03T07:06:21;7.80;;;1.60;;
74660;SDS011;63191;39.566;2.654;2023-04-03T07:08:46;9.20;;;2.00;;
74660;SDS011;63191;39.566;2.654;2023-04-03T07:11:14;9.40;;;2.00;;
74660;SDS011;63191;39.566;2.654;2023-04-03T07:13:40;7.50;;;2.30;;
74660;SDS011;63191;39.566;2.654;2023-04-03T07:16:07;9.20;;;2.40;;
74660;SDS011;63191;39.566;2.654;2023-04-03T07:18:33;10.20;;;3.00;;
74660;SDS011;63191;39.566;2.654;2023-04-03T07:21:00;9.30;;;2.90;;
74660;SDS011;63191;39.566;2.654;2023-04-03T07:23:26;9.20;;;2.30;;
74660;SDS011;63191;39.566;2.654;2023-04-03T07:25:52;14.10;;;2.60;;
74660;SDS011;63191;39.566;2.654;2023-04-03T07:28:19;9.40;;;2.80;;
74660;SDS011;63191;39.566;2.654;2023-04-03T07:30:50;8.90;;;2.60;;
74660;SDS011;63191;39.566;2.654;2023-04-03T07:33:19;9.90;;;2.70;;
74660;SDS011;63191;39.566;2.654;2023-04-03T07:35:46;8.40;;;2.50;;
74660;SDS011;63191;39.566;2.654;2023-04-03T07:38:12;7.70;;;2.20;;
74660;SDS011;63191;39.566;2.654;2023-04-03T07:40:39;8.70;;;1.80;;
74660;SDS011;63191;39.566;2.654;2023-04-03T07:43:05;9.30;;;2.00;;
74660;SDS011;63191;39.566;2.654;2023-04-03T07:45:33;5.90;;;1.20;;
74660;SDS011;63191;39.566;2.654;2023-04-03T07:48:00;8.20;;;1.60;;
74660;SDS011;63191;39.566;2.654;2023-04-03T07:50:27;6.70;;;1.50;;
74660;SDS011;63191;39.566;2.654;2023-04-03T07:52:53;8.50;;;1.50;;
74660;SDS011;63191;39.566;2.654;2023-04-03T07:55:21;7.10;;;1.30;;
74660;SDS011;63191;39.566;2.654;2023-04-03T07:57:47;8.40;;;1.60;;
74660;SDS011;63191;39.566;2.654;2023-04-03T08:00:13;10.80;;;1.40;;
74660;SDS011;63191;39.566;2.654;2023-04-03T08:02:40;9.00;;;1.30;;
74660;SDS011;63191;39.566;2.654;2023-04-03T08:05:06;8.60;;;1.40;;
74660;SDS011;63191;39.566;2.654;2023-04-03T08:07:32;7.20;;;1.00;;
74660;SDS011;63191;39.566;2.654;2023-04-03T08:09:58;7.40;;;1.30;;
74660;SDS011;63191;39.566;2.654;2023-04-03T08:12:23;6.90;;;1.00;;
74660;SDS011;63191;39.566;2.654;2023-04-03T08:14:49;8.80;;;1.80;;
74660;SDS011;63191;39.566;2.654;2023-04-03T08:17:17;9.50;;;1.20;;
74660;SDS011;63191;39.566;2.654;2023-04-03T08:19:46;6.50;;;1.00;;
74660;SDS011;63191;39.566;2.654;2023-04-03T08:22:12;7.50;;;1.50;;
74660;SDS011;63191;39.566;2.654;2023-04-03T08:24:38;7.00;;;1.70;;
74660;SDS011;63191;39.566;2.654;2023-04-03T08:27:10;9.80;;;2.70;;
74660;SDS011;63191;39.566;2.654;2023-04-03T08:29:36;6.50;;;1.60;;
74660;SDS011;63191;39.566;2.654;2023-04-03T08:32:04;7.00;;;1.20;;
74660;SDS011;63191;39.566;2.654;2023-04-03T08:34:30;10.10;;;1.60;;
74660;SDS011;63191;39.566;2.654;2023-04-03T08:37:02;7.60;;;1.40;;
74660;SDS011;63191;39.566;2.654;2023-04-03T08:39:28;8.00;;;1.30;;
74660;SDS011;63191;39.566;2.654;2023-04-03T08:41:58;10.10;;;2.40;;
74660;SDS011;63191;39.566;2.654;2023-04-03T08:45:10;5.60;;;0.90;;
74660;SDS011;63191;39.566;2.654;2023-04-03T08:47:58;9.70;;;2.10;;
74660;SDS011;63191;39.566;2.654;2023-04-03T08:50:31;5.90;;;0.80;;
74660;SDS011;63191;39.566;2.654;2023-04-03T08:53:01;8.00;;;1.30;;
74660;SDS011;63191;39.566;2.654;2023-04-03T08:56:00;6.50;;;0.80;;
74660;SDS011;63191;39.566;2.654;2023-04-03T08:58:48;9.00;;;1.00;;
74660;SDS011;63191;39.566;2.654;2023-04-03T09:01:35;8.40;;;1.20;;
74660;SDS011;63191;39.566;2.654;2023-04-03T09:04:12;4.60;;;0.80;;
74660;SDS011;63191;39.566;2.654;2023-04-03T09:06:39;5.60;;;0.80;;
74660;SDS011;63191;39.566;2.654;2023-04-03T09:09:42;4.20;;;0.70;;
74660;SDS011;63191;39.566;2.654;2023-04-03T09:15:17;9.40;;;1.30;;
74660;SDS011;63191;39.566;2.654;2023-04-03T09:21:16;5.20;;;0.70;;
74660;SDS011;63191;39.566;2.654;2023-04-03T09:23:56;8.10;;;1.20;;
74660;SDS011;63191;39.566;2.654;2023-04-03T09:26:44;4.70;;;0.80;;
74660;SDS011;63191;39.566;2.654;2023-04-03T09:29:40;5.70;;;1.20;;
74660;SDS011;63191;39.566;2.654;2023-04-03T09:32:27;11.20;;;4.90;;
74660;SDS011;63191;39.566;2.654;2023-04-03T09:34:58;7.90;;;0.90;;
74660;SDS011;63191;39.566;2.654;2023-04-03T09:37:38;6.80;;;1.20;;
74660;SDS011;63191;39.566;2.654;2023-04-03T09:40:30;4.30;;;0.80;;
74660;SDS011;63191;39.566;2.654;2023-04-03T09:43:18;9.70;;;2.40;;
74660;SDS011;63191;39.566;2.654;2023-04-03T09:46:15;6.60;;;1.00;;
74660;SDS011;63191;39.566;2.654;2023-04-03T09:48:59;4.10;;;0.60;;
74660;SDS011;63191;39.566;2.654;2023-04-03T09:51:39;5.80;;;0.70;;
74660;SDS011;63191;39.566;2.654;2023-04-03T09:54:36;6.40;;;0.80;;
74660;SDS011;63191;39.566;2.654;2023-04-03T09:57:09;8.30;;;1.00;;
74660;SDS011;63191;39.566;2.654;2023-04-03T10:00:04;4.20;;;0.60;;
74660;SDS011;63191;39.566;2.654;2023-04-03T10:02:50;6.30;;;0.80;;
74660;SDS011;63191;39.566;2.654;2023-04-03T10:05:40;6.40;;;0.90;;
74660;SDS011;63191;39.566;2.654;2023-04-03T10:10:43;4.10;;;0.60;;
74660;SDS011;63191;39.566;2.654;2023-04-03T10:13:14;6.70;;;0.80;;
74660;SDS011;63191;39.566;2.654;2023-04-03T10:18:29;7.40;;;1.00;;
74660;SDS011;63191;39.566;2.654;2023-04-03T10:21:33;5.90;;;1.00;;
74660;SDS011;63191;39.566;2.654;2023-04-03T10:24:36;7.90;;;1.00;;
74660;SDS011;63191;39.566;2.654;2023-04-03T10:27:21;7.70;;;1.10;;
74660;SDS011;63191;39.566;2.654;2023-04-03T10:36:02;6.00;;;0.90;;
74660;SDS011;63191;39.566;2.654;2023-04-03T10:38:51;6.30;;;1.30;;
74660;SDS011;63191;39.566;2.654;2023-04-03T10:42:02;7.40;;;0.60;;
74660;SDS011;63191;39.566;2.654;2023-04-03T10:48:13;3.30;;;0.60;;
74660;SDS011;63191;39.566;2.654;2023-04-03T10:51:12;6.40;;;0.70;;
74660;SDS011;63191;39.566;2.654;2023-04-03T10:53:49;7.40;;;0.80;;
74660;SDS011;63191;39.566;2.654;2023-04-03T10:56:37;4.80;;;0.60;;
74660;SDS011;63191;39.566;2.654;2023-04-03T11:02:31;9.10;;;1.20;;
74660;SDS011;63191;39.566;2.654;2023-04-03T11:05:39;5.90;;;0.60;;
74660;SDS011;63191;39.566;2.654;2023-04-03T11:10:45;7.00;;;1.00;;
74660;SDS011;63191;39.566;2.654;2023-04-03T11:13:27;5.40;;;0.80;;
74660;SDS011;63191;39.566;2.654;2023-04-03T11:15:54;7.70;;;0.70;;
74660;SDS011;63191;39.566;2.654;2023-04-03T11:18:25;7.90;;;1.00;;
74660;SDS011;63191;39.566;2.654;2023-04-03T11:21:19;8.00;;;1.10;;
74660;SDS011;63191;39.566;2.654;2023-04-03T11:23:47;4.20;;;0.60;;
74660;SDS011;63191;39.566;2.654;2023-04-03T11:26:15;8.80;;;1.20;;
74660;SDS011;63191;39.566;2.654;2023-04-03T11:28:43;6.20;;;1.10;;
74660;SDS011;63191;39.566;2.654;2023-04-03T11:31:21;10.10;;;1.30;;
74660;SDS011;63191;39.566;2.654;2023-04-03T11:34:04;6.30;;;0.70;;
74660;SDS011;63191;39.566;2.654;2023-04-03T11:36:53;6.50;;;1.20;;
74660;SDS011;63191;39.566;2.654;2023-04-03T11:39:35;5.30;;;0.90;;
74660;SDS011;63191;39.566;2.654;2023-04-03T11:42:29;6.40;;;0.80;;
74660;SDS011;63191;39.566;2.654;2023-04-03T11:50:56;7.30;;;1.00;;
74660;SDS011;63191;39.566;2.654;2023-04-03T11:53:28;7.00;;;0.80;;
74660;SDS011;63191;39.566;2.654;2023-04-03T11:55:59;6.50;;;0.70;;
74660;SDS011;63191;39.566;2.654;2023-04-03T11:58:27;8.30;;;0.80;;
74660;SDS011;63191;39.566;2.654;2023-04-03T12:00:57;3.60;;;0.60;;
74660;SDS011;63191;39.566;2.654;2023-04-03T12:05:51;7.30;;;0.90;;
74660;SDS011;63191;39.566;2.654;2023-04-03T12:14:02;7.20;;;0.90;;
74660;SDS011;63191;39.566;2.654;2023-04-03T12:16:43;5.90;;;1.20;;
74660;SDS011;63191;39.566;2.654;2023-04-03T12:29:37;5.10;;;0.90;;
74660;SDS011;63191;39.566;2.654;2023-04-03T12:35:27;8.70;;;2.40;;
74660;SDS011;63191;39.566;2.654;2023-04-03T12:38:25;8.10;;;2.10;;
74660;SDS011;63191;39.566;2.654;2023-04-03T12:41:21;9.00;;;2.80;;
74660;SDS011;63191;39.566;2.654;2023-04-03T12:44:21;8.40;;;3.20;;
74660;SDS011;63191;39.566;2.654;2023-04-03T12:47:33;9.20;;;3.30;;
74660;SDS011;63191;39.566;2.654;2023-04-03T12:52:51;9.50;;;4.30;;
74660;SDS011;63191;39.566;2.654;2023-04-03T12:55:26;7.50;;;4.30;;
74660;SDS011;63191;39.566;2.654;2023-04-03T12:57:52;8.40;;;4.80;;
74660;SDS011;63191;39.566;2.654;2023-04-03T13:00:28;8.50;;;5.20;;
74660;SDS011;63191;39.566;2.654;2023-04-03T13:02:59;7.80;;;5.50;;
74660;SDS011;63191;39.566;2.654;2023-04-03T13:05:28;8.40;;;5.80;;
74660;SDS011;63191;39.566;2.654;2023-04-03T13:08:04;7.60;;;5.20;;
74660;SDS011;63191;39.566;2.654;2023-04-03T13:10:33;7.10;;;5.50;;
74660;SDS011;63191;39.566;2.654;2023-04-03T13:13:14;9.10;;;5.20;;
74660;SDS011;63191;39.566;2.654;2023-04-03T13:15:46;6.30;;;3.80;;
74660;SDS011;63191;39.566;2.654;2023-04-03T13:20:49;7.60;;;3.10;;
74660;SDS011;63191;39.566;2.654;2023-04-03T13:23:17;6.70;;;3.10;;
74660;SDS011;63191;39.566;2.654;2023-04-03T13:25:47;6.80;;;2.60;;
74660;SDS011;63191;39.566;2.654;2023-04-03T13:28:18;7.10;;;2.40;;
74660;SDS011;63191;39.566;2.654;2023-04-03T13:31:02;5.40;;;2.00;;
74660;SDS011;63191;39.566;2.654;2023-04-03T13:33:34;5.70;;;1.80;;
74660;SDS011;63191;39.566;2.654;2023-04-03T13:36:18;4.80;;;1.00;;
74660;SDS011;63191;39.566;2.654;2023-04-03T13:38:46;4.40;;;0.90;;
74660;SDS011;63191;39.566;2.654;2023-04-03T13:41:36;4.40;;;0.80;;
74660;SDS011;63191;39.566;2.654;2023-04-03T13:46:52;4.20;;;0.60;;
74660;SDS011;63191;39.566;2.654;2023-04-03T13:51:52;2.90;;;0.50;;
74660;SDS011;63191;39.566;2.654;2023-04-03T13:54:22;4.60;;;0.40;;
74660;SDS011;63191;39.566;2.654;2023-04-03T13:56:57;2.90;;;0.30;;
74660;SDS011;63191;39.566;2.654;2023-04-03T13:59:29;5.80;;;0.70;;
74660;SDS011;63191;39.566;2.654;2023-04-03T14:04:31;4.00;;;0.40;;
74660;SDS011;63191;39.566;2.654;2023-04-03T14:07:10;2.70;;;0.50;;
74660;SDS011;63191;39.566;2.654;2023-04-03T14:09:37;2.20;;;0.30;;
74660;SDS011;63191;39.566;2.654;2023-04-03T14:12:11;3.30;;;0.40;;
74660;SDS011;63191;39.566;2.654;2023-04-03T14:14:40;4.40;;;0.30;;
74660;SDS011;63191;39.566;2.654;2023-04-03T14:17:18;1.40;;;0.30;;
74660;SDS011;63191;39.566;2.654;2023-04-03T14:19:47;3.30;;;0.30;;
74660;SDS011;63191;39.566;2.654;2023-04-03T14:22:26;5.40;;;0.50;;
74660;SDS011;63191;39.566;2.654;2023-04-03T14:24:54;3.80;;;0.50;;
74660;SDS011;63191;39.566;2.654;2023-04-03T14:27:24;3.80;;;0.50;;
74660;SDS011;63191;39.566;2.654;2023-04-03T14:29:53;4.80;;;0.60;;
74660;SDS011;63191;39.566;2.654;2023-04-03T14:32:21;4.50;;;0.50;;
74660;SDS011;63191;39.566;2.654;2023-04-03T14:34:49;6.20;;;0.30;;
74660;SDS011;63191;39.566;2.654;2023-04-03T14:37:22;3.20;;;0.30;;
74660;SDS011;63191;39.566;2.654;2023-04-03T14:39:49;2.80;;;0.30;;
74660;SDS011;63191;39.566;2.654;2023-04-03T14:42:26;3.30;;;0.20;;
74660;SDS011;63191;39.566;2.654;2023-04-03T14:44:53;3.60;;;0.40;;
74660;SDS011;63191;39.566;2.654;2023-04-03T14:47:24;1.80;;;0.20;;
74660;SDS011;63191;39.566;2.654;2023-04-03T14:49:53;3.20;;;0.20;;
74660;SDS011;63191;39.566;2.654;2023-04-03T14:52:29;2.90;;;0.30;;
74660;SDS011;63191;39.566;2.654;2023-04-03T14:54:56;8.40;;;0.50;;
74660;SDS011;63191;39.566;2.654;2023-04-03T14:57:24;2.60;;;0.40;;
74660;SDS011;63191;39.566;2.654;2023-04-03T14:59:51;2.90;;;0.30;;
74660;SDS011;63191;39.566;2.654;2023-04-03T15:02:33;4.50;;;0.50;;
74660;SDS011;63191;39.566;2.654;2023-04-03T15:05:04;1.50;;;0.30;;
74660;SDS011;63191;39.566;2.654;2023-04-03T15:07:34;3.70;;;0.30;;
74660;SDS011;63191;39.566;2.654;2023-04-03T15:10:18;2.60;;;0.30;;
74660;SDS011;63191;39.566;2.654;2023-04-03T15:12:49;2.30;;;0.20;;
74660;SDS011;63191;39.566;2.654;2023-04-03T15:15:17;1.90;;;0.30;;
74660;SDS011;63191;39.566;2.654;2023-04-03T15:17:45;2.10;;;0.20;;
74660;SDS011;63191;39.566;2.654;2023-04-03T15:20:19;3.10;;;0.40;;
74660;SDS011;63191;39.566;2.654;2023-04-03T15:22:46;1.80;;;0.30;;
74660;SDS011;63191;39.566;2.654;2023-04-03T15:25:12;2.80;;;0.20;;
74660;SDS011;63191;39.566;2.654;2023-04-03T15:27:38;1.80;;;0.20;;
74660;SDS011;63191;39.566;2.654;2023-04-03T15:30:06;4.70;;;0.40;;
74660;SDS011;63191;39.566;2.654;2023-04-03T15:32:34;2.80;;;0.20;;
74660;SDS011;63191;39.566;2.654;2023-04-03T15:35:01;3.70;;;0.30;;
74660;SDS011;63191;39.566;2.654;2023-04-03T15:37:28;3.50;;;0.30;;
74660;SDS011;63191;39.566;2.654;2023-04-03T15:39:53;2.20;;;0.30;;
74660;SDS011;63191;39.566;2.654;2023-04-03T15:42:19;2.60;;;0.30;;
74660;SDS011;63191;39.566;2.654;2023-04-03T15:44:45;4.10;;;0.60;;
74660;SDS011;63191;39.566;2.654;2023-04-03T15:47:11;1.90;;;0.20;;
74660;SDS011;63191;39.566;2.654;2023-04-03T15:49:39;3.00;;;0.50;;
74660;SDS011;63191;39.566;2.654;2023-04-03T15:52:05;3.40;;;0.60;;
74660;SDS011;63191;39.566;2.654;2023-04-03T15:54:30;2.70;;;0.30;;
74660;SDS011;63191;39.566;2.654;2023-04-03T15:56:56;1.80;;;0.20;;
74660;SDS011;63191;39.566;2.654;2023-04-03T15:59:24;2.50;;;0.30;;
74660;SDS011;63191;39.566;2.654;2023-04-03T16:01:51;2.30;;;0.20;;
74660;SDS011;63191;39.566;2.654;2023-04-03T16:04:18;1.30;;;0.20;;
74660;SDS011;63191;39.566;2.654;2023-04-03T16:06:45;3.20;;;0.50;;
74660;SDS011;63191;39.566;2.654;2023-04-03T16:09:11;0.90;;;0.10;;
74660;SDS011;63191;39.566;2.654;2023-04-03T16:11:38;2.80;;;0.50;;
74660;SDS011;63191;39.566;2.654;2023-04-03T16:14:07;4.60;;;0.30;;
74660;SDS011;63191;39.566;2.654;2023-04-03T16:16:34;3.40;;;0.30;;
74660;SDS011;63191;39.566;2.654;2023-04-03T16:19:01;2.20;;;0.20;;
74660;SDS011;63191;39.566;2.654;2023-04-03T16:21:27;3.80;;;0.50;;
74660;SDS011;63191;39.566;2.654;2023-04-03T16:23:56;1.90;;;0.30;;
74660;SDS011;63191;39.566;2.654;2023-04-03T16:26:23;2.20;;;0.30;;